Time;durP1;ratioP1;P1;durP2;ratioP2;P2;SDS_P1;SDS_P2;PMS_P1;PMS_P2;Temp;Humidity;BMP_temperature;BMP_pressure;BME280_temperature;BME280_humidity;BME280_pressure;Samples;Min_cycle;Max_cycle;Signal;HPM_P1;HPM_P2
2020/12/08 00:03:53;;;;;;;15.75;13.27;;;;;;;;;;4863806;28;20208;-58
2020/12/08 00:06:56;;;;;;;16.45;13.90;;;;;;;;;;4237801;33;20119;-60
2020/12/08 00:09:59;;;;;;;16.67;12.93;;;;;;;;;;4238590;33;20119;-60
2020/12/08 00:13:03;;;;;;;15.65;13.95;;;;;;;;;;4232909;33;20425;-60
2020/12/08 00:16:07;;;;;;;16.80;13.75;;;;;;;;;;4233646;33;20136;-60
2020/12/08 00:19:11;;;;;;;18.17;14.90;;;;;;;;;;4216862;33;20211;-61
2020/12/08 00:22:15;;;;;;;16.05;13.80;;;;;;;;;;4234386;33;20084;-60
2020/12/08 00:25:19;;;;;;;17.15;14.77;;;;;;;;;;4238849;33;20448;-61
2020/12/08 00:28:23;;;;;;;17.75;14.65;;;;;;;;;;4238263;33;20138;-60
2020/12/08 00:31:27;;;;;;;18.58;14.85;;;;;;;;;;4247567;33;20192;-60
2020/12/08 00:34:31;;;;;;;16.35;14.63;;;;;;;;;;4238431;33;20529;-60
2020/12/08 00:37:36;;;;;;;17.42;14.90;;;;;;;;;;4238985;33;20535;-60
2020/12/08 00:40:44;;;;;;;17.92;15.95;;;;;;;;;;4219451;34;20140;-61
2020/12/08 00:43:49;;;;;;;21.17;15.90;;;;;;;;;;4210717;34;20132;-61
2020/12/08 00:46:52;;;;;;;19.17;17.05;;;;;;;;;;4211032;34;20129;-60
2020/12/08 00:49:55;;;;;;;20.10;16.37;;;;;;;;;;4210379;34;20112;-61
2020/12/08 00:52:59;;;;;;;17.62;14.82;;;;;;;;;;4219230;34;20220;-61
2020/12/08 00:56:08;;;;;;;17.00;15.20;;;;;;;;;;4219118;34;20123;-60
2020/12/08 00:59:13;;;;;;;18.05;14.00;;;;;;;;;;4219091;34;20121;-60
2020/12/08 01:02:17;;;;;;;17.17;14.55;;;;;;;;;;4202192;34;20605;-60
2020/12/08 01:05:22;;;;;;;16.35;14.65;;;;;;;;;;4218206;33;20104;-61
2020/12/08 01:08:25;;;;;;;18.85;14.02;;;;;;;;;;4224059;33;20543;-60
2020/12/08 01:11:29;;;;;;;16.08;14.40;;;;;;;;;;4224152;33;20108;-61
2020/12/08 01:14:32;;;;;;;15.52;13.80;;;;;;;;;;4223964;33;20123;-61
2020/12/08 01:17:36;;;;;;;17.20;15.30;;;;;;;;;;4224063;33;20123;-60
2020/12/08 01:20:39;;;;;;;15.88;14.18;;;;;;;;;;4223994;33;20205;-60
2020/12/08 01:23:44;;;;;;;18.08;14.10;;;;;;;;;;4232907;33;20120;-61
2020/12/08 01:26:48;;;;;;;17.42;15.52;;;;;;;;;;4233174;33;20104;-61
2020/12/08 01:29:54;;;;;;;18.50;14.87;;;;;;;;;;4224046;33;20124;-61
2020/12/08 01:32:58;;;;;;;15.93;13.88;;;;;;;;;;4233198;33;20095;-60
2020/12/08 01:36:01;;;;;;;18.10;14.77;;;;;;;;;;4232706;33;20120;-61
2020/12/08 01:39:05;;;;;;;17.35;15.23;;;;;;;;;;4239066;33;20127;-60
2020/12/08 01:42:10;;;;;;;20.52;15.55;;;;;;;;;;4246992;33;20524;-60
2020/12/08 01:45:14;;;;;;;19.33;14.38;;;;;;;;;;4246810;33;20119;-60
2020/12/08 01:48:17;;;;;;;16.52;14.45;;;;;;;;;;4246833;33;20588;-61
2020/12/08 01:51:21;;;;;;;17.60;14.30;;;;;;;;;;4229695;33;20461;-60
2020/12/08 01:54:25;;;;;;;19.58;14.48;;;;;;;;;;4237761;33;20554;-60
2020/12/08 01:57:28;;;;;;;16.50;14.63;;;;;;;;;;4237843;33;20484;-61
2020/12/08 02:00:32;;;;;;;15.77;14.15;;;;;;;;;;4237549;33;20095;-61
2020/12/08 02:03:35;;;;;;;16.70;15.00;;;;;;;;;;4229429;33;20163;-60
2020/12/08 02:06:40;;;;;;;18.40;14.87;;;;;;;;;;4208653;33;20519;-61
2020/12/08 02:09:44;;;;;;;16.20;14.05;;;;;;;;;;4223383;33;20234;-60
2020/12/08 02:12:47;;;;;;;16.35;14.68;;;;;;;;;;4223598;33;20124;-60
2020/12/08 02:15:51;;;;;;;16.02;14.32;;;;;;;;;;4223139;33;20112;-61
2020/12/08 02:18:54;;;;;;;17.17;15.30;;;;;;;;;;4233247;33;20136;-62
2020/12/08 02:21:58;;;;;;;21.15;18.55;;;;;;;;;;4225681;33;20096;-62
2020/12/08 02:25:03;;;;;;;24.33;21.85;;;;;;;;;;4234280;33;20115;-62
2020/12/08 02:28:06;;;;;;;31.62;28.45;;;;;;;;;;4234286;33;20154;-61
2020/12/08 02:31:10;;;;;;;30.65;27.30;;;;;;;;;;4234558;33;20095;-62
2020/12/08 02:34:14;;;;;;;31.98;28.73;;;;;;;;;;4225214;33;20200;-63
2020/12/08 02:37:17;;;;;;;30.10;27.17;;;;;;;;;;4225272;33;20128;-62
2020/12/08 02:40:21;;;;;;;30.17;27.20;;;;;;;;;;4234345;33;20136;-61
2020/12/08 02:43:24;;;;;;;29.25;26.37;;;;;;;;;;4234163;33;20200;-63
2020/12/08 02:46:28;;;;;;;25.58;22.15;;;;;;;;;;4234389;33;20134;-61
2020/12/08 02:49:32;;;;;;;25.62;22.52;;;;;;;;;;4225134;33;20300;-62
2020/12/08 02:52:35;;;;;;;25.33;22.73;;;;;;;;;;4234400;33;20192;-61
2020/12/08 02:55:39;;;;;;;22.45;20.05;;;;;;;;;;4234502;33;20126;-62
2020/12/08 02:58:42;;;;;;;19.33;17.30;;;;;;;;;;4234142;33;20116;-61
2020/12/08 03:01:46;;;;;;;23.35;19.23;;;;;;;;;;4234265;33;20096;-62
2020/12/08 03:04:49;;;;;;;22.10;19.75;;;;;;;;;;4233982;33;20112;-61
2020/12/08 03:07:53;;;;;;;22.77;20.48;;;;;;;;;;4225126;33;20512;-58
2020/12/08 03:10:56;;;;;;;22.52;20.17;;;;;;;;;;4232992;33;20222;-59
2020/12/08 03:13:59;;;;;;;22.13;19.83;;;;;;;;;;4222619;33;20213;-59
2020/12/08 03:17:04;;;;;;;19.95;17.52;;;;;;;;;;4222946;33;20645;-59
2020/12/08 03:20:07;;;;;;;18.52;16.62;;;;;;;;;;4231876;33;20473;-59
2020/12/08 03:23:11;;;;;;;20.95;18.73;;;;;;;;;;4231517;33;20192;-62
2020/12/08 03:26:24;;;;;;;19.23;17.33;;;;;;;;;;4232856;33;20140;-62
2020/12/08 03:29:27;;;;;;;21.77;18.58;;;;;;;;;;4215991;33;20289;-61
2020/12/08 03:32:31;;;;;;;22.92;19.37;;;;;;;;;;4233896;33;20207;-61
2020/12/08 03:35:34;;;;;;;22.52;18.95;;;;;;;;;;4233767;33;20131;-61
2020/12/08 03:38:38;;;;;;;20.48;18.37;;;;;;;;;;4224845;33;20196;-61
2020/12/08 03:41:41;;;;;;;22.90;18.87;;;;;;;;;;4233930;33;20135;-61
2020/12/08 03:44:45;;;;;;;25.00;22.13;;;;;;;;;;4224871;33;20108;-61
2020/12/08 03:47:49;;;;;;;27.52;24.00;;;;;;;;;;4224860;33;20151;-61
2020/12/08 03:50:52;;;;;;;21.45;17.87;;;;;;;;;;4233815;33;20123;-61
2020/12/08 03:53:55;;;;;;;19.17;17.08;;;;;;;;;;4233965;33;20109;-61
2020/12/08 03:56:59;;;;;;;17.12;15.32;;;;;;;;;;4224154;33;20461;-60
2020/12/08 04:00:08;;;;;;;20.98;16.20;;;;;;;;;;4223212;33;20107;-63
2020/12/08 04:03:11;;;;;;;21.40;17.62;;;;;;;;;;4216830;33;20128;-62
2020/12/08 04:06:15;;;;;;;18.83;16.33;;;;;;;;;;4224519;33;20203;-62
2020/12/08 04:09:19;;;;;;;17.17;15.00;;;;;;;;;;4233723;33;20112;-61
2020/12/08 04:12:23;;;;;;;17.08;15.25;;;;;;;;;;4233889;33;20108;-61
2020/12/08 04:15:27;;;;;;;15.60;13.98;;;;;;;;;;4233648;33;20192;-62
2020/12/08 04:18:30;;;;;;;15.73;13.50;;;;;;;;;;4224588;33;20152;-60
2020/12/08 04:21:34;;;;;;;13.90;11.90;;;;;;;;;;4224562;33;20332;-62
2020/12/08 04:24:38;;;;;;;15.02;12.73;;;;;;;;;;4224473;33;20103;-61
2020/12/08 04:27:42;;;;;;;15.10;13.05;;;;;;;;;;4233552;33;20188;-62
2020/12/08 04:30:45;;;;;;;19.20;13.02;;;;;;;;;;4233253;33;20120;-61
2020/12/08 04:33:49;;;;;;;14.07;12.40;;;;;;;;;;4224521;33;20593;-61
2020/12/08 04:36:52;;;;;;;18.33;13.65;;;;;;;;;;4224423;33;20112;-61
2020/12/08 04:39:56;;;;;;;15.50;13.57;;;;;;;;;;4224470;33;20150;-62
2020/12/08 04:42:59;;;;;;;17.50;13.90;;;;;;;;;;4224462;33;20216;-62
2020/12/08 04:46:03;;;;;;;14.70;12.05;;;;;;;;;;4224150;33;20112;-61
2020/12/08 04:49:06;;;;;;;15.55;13.23;;;;;;;;;;4224717;33;20477;-62
2020/12/08 04:52:11;;;;;;;14.57;11.55;;;;;;;;;;4224347;33;20135;-62
2020/12/08 04:55:15;;;;;;;14.77;12.15;;;;;;;;;;4216412;33;20107;-61
2020/12/08 04:58:18;;;;;;;13.82;11.88;;;;;;;;;;4224205;33;20128;-61
2020/12/08 05:01:26;;;;;;;14.35;12.57;;;;;;;;;;4224174;33;20252;-61
2020/12/08 05:04:29;;;;;;;;;;;;;;;;;;4233954;33;20128;-61
2020/12/08 05:07:32;;;;;;;13.20;11.40;;;;;;;;;;4233124;33;20072;-61
2020/12/08 05:10:36;;;;;;;12.55;11.25;;;;;;;;;;4232981;33;20228;-61
2020/12/08 05:13:39;;;;;;;13.52;10.70;;;;;;;;;;4224001;33;20620;-61
2020/12/08 05:16:42;;;;;;;15.63;11.43;;;;;;;;;;4233032;33;20544;-62
2020/12/08 05:19:46;;;;;;;12.50;11.20;;;;;;;;;;4232909;33;20112;-60
2020/12/08 05:22:57;;;;;;;12.98;11.18;;;;;;;;;;4233013;33;20108;-62
2020/12/08 05:26:06;;;;;;;15.60;12.27;;;;;;;;;;4223757;33;20132;-62
2020/12/08 05:29:10;;;;;;;11.90;10.63;;;;;;;;;;4233022;33;20102;-62
2020/12/08 05:32:29;;;;;;;13.35;10.88;;;;;;;;;;4223982;33;20135;-62
2020/12/08 05:35:32;;;;;;;13.93;11.23;;;;;;;;;;4224289;33;20104;-63
2020/12/08 05:38:38;;;;;;;14.87;11.88;;;;;;;;;;4223740;33;20512;-62
2020/12/08 05:41:42;;;;;;;15.57;10.57;;;;;;;;;;4224121;33;20160;-63
2020/12/08 05:44:49;;;;;;;11.73;9.85;;;;;;;;;;4223906;33;20103;-62
2020/12/08 05:47:57;;;;;;;15.52;12.88;;;;;;;;;;4216171;33;20204;-62
2020/12/08 05:51:02;;;;;;;20.52;16.75;;;;;;;;;;4223697;33;20120;-62
2020/12/08 05:54:05;;;;;;;21.77;18.80;;;;;;;;;;4232111;33;20544;-62
2020/12/08 05:57:14;;;;;;;20.40;15.77;;;;;;;;;;4223541;33;20143;-63
2020/12/08 06:00:25;;;;;;;15.80;13.13;;;;;;;;;;4232495;33;20093;-62
2020/12/08 06:03:28;;;;;;;16.33;13.60;;;;;;;;;;4232369;33;20512;-63
2020/12/08 06:06:32;;;;;;;14.55;12.63;;;;;;;;;;4223438;33;20112;-62
2020/12/08 06:09:35;;;;;;;12.68;10.38;;;;;;;;;;4215673;33;20464;-62
2020/12/08 06:12:40;;;;;;;13.93;11.00;;;;;;;;;;4223602;33;20192;-63
2020/12/08 06:15:44;;;;;;;14.75;11.73;;;;;;;;;;4232509;33;20128;-62
2020/12/08 06:18:47;;;;;;;13.20;11.43;;;;;;;;;;4232978;33;20121;-62
2020/12/08 06:21:51;;;;;;;12.55;11.15;;;;;;;;;;4223417;33;20124;-62
2020/12/08 06:24:56;;;;;;;15.10;12.37;;;;;;;;;;4223397;33;20515;-63
2020/12/08 06:28:03;;;;;;;15.43;12.73;;;;;;;;;;4232380;33;20092;-62
2020/12/08 06:31:07;;;;;;;;;;;;;;;;;;4223938;33;20219;-62
2020/12/08 06:34:21;;;;;;;16.15;12.07;;;;;;;;;;4223354;33;19968;-61
2020/12/08 06:37:24;;;;;;;14.82;12.37;;;;;;;;;;4232093;33;20109;-62
2020/12/08 06:40:29;;;;;;;17.62;12.73;;;;;;;;;;4222945;33;20481;-62
2020/12/08 06:43:37;;;;;;;14.95;12.57;;;;;;;;;;4215318;33;20104;-62
2020/12/08 06:47:10;;;;;;;14.80;12.57;;;;;;;;;;4223411;33;20107;-61
2020/12/08 06:50:21;;;;;;;16.70;13.98;;;;;;;;;;4232104;33;20119;-61
2020/12/08 06:53:25;;;;;;;14.63;12.60;;;;;;;;;;4222888;33;20612;-62
2020/12/08 06:56:30;;;;;;;17.55;13.73;;;;;;;;;;4223118;33;20136;-62
2020/12/08 06:59:34;;;;;;;22.55;15.23;;;;;;;;;;4222831;33;20099;-61
2020/12/08 07:02:55;;;;;;;20.80;16.27;;;;;;;;;;4231725;33;20195;-62
2020/12/08 07:06:00;;;;;;;19.12;15.45;;;;;;;;;;4225342;33;20205;-62
2020/12/08 07:09:05;;;;;;;20.02;15.88;;;;;;;;;;4216758;33;20112;-61
2020/12/08 07:12:08;;;;;;;18.87;15.68;;;;;;;;;;4216756;33;20116;-62
2020/12/08 07:15:24;;;;;;;16.95;13.27;;;;;;;;;;4224963;33;20532;-63
2020/12/08 07:18:29;;;;;;;17.52;13.18;;;;;;;;;;4234190;33;20108;-63
2020/12/08 07:21:32;;;;;;;15.45;12.95;;;;;;;;;;4216712;33;20144;-63
2020/12/08 07:24:43;;;;;;;15.50;12.70;;;;;;;;;;4233909;33;20515;-63
2020/12/08 07:27:50;;;;;;;17.70;13.75;;;;;;;;;;4216781;33;20115;-63
2020/12/08 07:30:53;;;;;;;18.50;14.43;;;;;;;;;;4233853;33;20204;-62
2020/12/08 07:33:58;;;;;;;16.52;12.48;;;;;;;;;;4233808;33;20119;-63
2020/12/08 07:37:02;;;;;;;17.85;12.82;;;;;;;;;;4224867;33;20101;-63
2020/12/08 07:40:10;;;;;;;19.58;15.88;;;;;;;;;;4233782;33;20132;-63
2020/12/08 07:43:13;;;;;;;21.30;15.73;;;;;;;;;;4217211;33;20634;-63
2020/12/08 07:46:28;;;;;;;19.73;15.45;;;;;;;;;;4224926;33;20204;-62
2020/12/08 07:49:39;;;;;;;18.98;14.35;;;;;;;;;;4225458;33;20191;-63
2020/12/08 07:52:42;;;;;;;17.73;14.32;;;;;;;;;;4233759;33;20484;-62
2020/12/08 07:55:46;;;;;;;19.17;14.90;;;;;;;;;;4224842;33;20773;-62
2020/12/08 07:58:49;;;;;;;18.65;15.55;;;;;;;;;;4224965;33;20227;-63
2020/12/08 08:01:53;;;;;;;22.62;15.98;;;;;;;;;;4224690;33;20120;-61
2020/12/08 08:04:56;;;;;;;17.45;13.88;;;;;;;;;;4233907;33;20540;-60
2020/12/08 08:08:00;;;;;;;18.95;15.68;;;;;;;;;;4233698;33;20192;-61
2020/12/08 08:11:03;;;;;;;20.40;16.40;;;;;;;;;;4233269;33;20123;-61
2020/12/08 08:14:07;;;;;;;18.25;15.73;;;;;;;;;;4233112;33;20116;-61
2020/12/08 08:17:11;;;;;;;19.67;15.90;;;;;;;;;;4224022;33;20601;-62
2020/12/08 08:20:14;;;;;;;16.37;14.32;;;;;;;;;;4223916;33;20159;-62
2020/12/08 08:23:18;;;;;;;17.58;15.30;;;;;;;;;;4233056;33;20196;-62
2020/12/08 08:26:21;;;;;;;19.05;14.85;;;;;;;;;;4233175;33;20195;-62
2020/12/08 08:29:25;;;;;;;17.08;13.45;;;;;;;;;;4224222;33;20208;-62
2020/12/08 08:32:29;;;;;;;17.48;14.00;;;;;;;;;;4233178;33;20548;-62
2020/12/08 08:35:32;;;;;;;18.90;13.77;;;;;;;;;;4224045;33;20597;-62
2020/12/08 08:38:04;;;;;;;17.55;13.38;;;;;;;;;;4233183;33;20124;-60
2020/12/08 08:40:31;;;;;;;17.85;14.35;;;;;;;;;;4219790;33;20128;-62
2020/12/08 08:42:58;;;;;;;22.80;17.73;;;;;;;;;;4220043;33;20102;-62
2020/12/08 08:45:24;;;;;;;19.55;15.43;;;;;;;;;;4220077;33;20556;-61
2020/12/08 08:47:50;;;;;;;20.65;15.57;;;;;;;;;;4219934;33;20116;-61
2020/12/08 08:50:17;;;;;;;26.87;15.40;;;;;;;;;;4208165;33;20548;-61
2020/12/08 08:52:43;;;;;;;21.08;15.65;;;;;;;;;;4219954;33;20176;-62
2020/12/08 08:55:11;;;;;;;22.17;15.88;;;;;;;;;;4231108;33;20288;-62
2020/12/08 08:57:38;;;;;;;19.60;15.88;;;;;;;;;;4220199;33;20524;-62
2020/12/08 09:00:08;;;;;;;23.45;17.98;;;;;;;;;;4232750;33;20116;-60
2020/12/08 09:02:34;;;;;;;24.55;16.85;;;;;;;;;;4219970;33;20315;-62
2020/12/08 09:05:01;;;;;;;24.40;16.87;;;;;;;;;;4232935;33;20140;-60
2020/12/08 09:07:29;;;;;;;20.55;15.70;;;;;;;;;;4231867;33;20116;-58
2020/12/08 09:09:56;;;;;;;20.85;17.10;;;;;;;;;;4230214;33;20089;-56
2020/12/08 09:12:24;;;;;;;20.80;15.80;;;;;;;;;;4232095;33;20180;-55
2020/12/08 09:14:52;;;;;;;24.52;16.98;;;;;;;;;;4205560;34;20133;-52
2020/12/08 09:17:19;;;;;;;26.45;20.17;;;;;;;;;;4194837;33;20096;-53
2020/12/08 09:19:44;;;;;;;25.08;20.45;;;;;;;;;;4207911;33;20104;-56
2020/12/08 09:22:11;;;;;;;25.80;19.15;;;;;;;;;;4210138;33;20148;-55
2020/12/08 09:24:36;;;;;;;21.10;17.37;;;;;;;;;;4231194;33;20104;-58
2020/12/08 09:27:06;;;;;;;23.92;17.70;;;;;;;;;;4232242;33;20116;-58
2020/12/08 09:29:33;;;;;;;21.35;18.00;;;;;;;;;;4214644;33;20099;-56
2020/12/08 09:31:59;;;;;;;28.35;18.25;;;;;;;;;;4247185;33;20140;-57
2020/12/08 09:34:25;;;;;;;24.12;18.58;;;;;;;;;;4246831;33;20145;-58
2020/12/08 09:36:51;;;;;;;24.52;19.85;;;;;;;;;;4221888;33;20128;-57
2020/12/08 09:39:17;;;;;;;23.83;19.65;;;;;;;;;;4208206;33;20124;-59
2020/12/08 09:41:43;;;;;;;24.30;19.27;;;;;;;;;;4208264;33;20145;-57
2020/12/08 09:44:10;;;;;;;24.65;19.90;;;;;;;;;;4219679;33;20469;-58
2020/12/08 09:46:41;;;;;;;24.98;18.83;;;;;;;;;;4219335;33;20541;-59
2020/12/08 09:49:07;;;;;;;26.73;20.73;;;;;;;;;;4219490;33;20168;-58
2020/12/08 09:51:33;;;;;;;19.90;16.10;;;;;;;;;;4219847;33;20184;-59
2020/12/08 09:54:00;;;;;;;18.77;15.07;;;;;;;;;;4219438;33;20509;-60
2020/12/08 09:56:25;;;;;;;17.98;14.55;;;;;;;;;;4233611;33;20107;-60
2020/12/08 09:58:54;;;;;;;18.70;15.13;;;;;;;;;;4233414;33;20104;-59
2020/12/08 10:01:31;;;;;;;20.62;16.48;;;;;;;;;;4246596;33;20136;-59
2020/12/08 10:03:57;;;;;;;25.17;18.70;;;;;;;;;;4246341;33;20619;-58
2020/12/08 10:06:24;;;;;;;22.67;17.52;;;;;;;;;;4246285;33;20109;-57
2020/12/08 10:08:50;;;;;;;21.58;15.95;;;;;;;;;;4221635;33;20529;-58
2020/12/08 10:11:16;;;;;;;18.52;16.62;;;;;;;;;;4233299;33;20124;-59
2020/12/08 10:13:42;;;;;;;19.45;16.62;;;;;;;;;;4246592;33;20116;-56
2020/12/08 10:16:09;;;;;;;19.83;15.60;;;;;;;;;;4246062;33;20097;-56
2020/12/08 10:18:35;;;;;;;18.52;15.15;;;;;;;;;;4245961;33;20092;-55
2020/12/08 10:21:01;;;;;;;17.08;15.15;;;;;;;;;;4233031;33;20120;-56
2020/12/08 10:23:27;;;;;;;18.17;14.73;;;;;;;;;;4231989;33;20116;-58
2020/12/08 10:25:53;;;;;;;23.20;14.55;;;;;;;;;;4231963;33;20132;-58
2020/12/08 10:28:19;;;;;;;17.95;14.25;;;;;;;;;;4218695;33;20531;-60
2020/12/08 10:30:45;;;;;;;17.75;14.25;;;;;;;;;;4231904;33;20104;-58
2020/12/08 10:33:11;;;;;;;19.67;14.23;;;;;;;;;;4231958;33;20243;-58
2020/12/08 10:35:37;;;;;;;21.55;14.00;;;;;;;;;;4231704;33;20117;-57
2020/12/08 10:38:03;;;;;;;22.13;14.48;;;;;;;;;;4231910;33;20485;-57
2020/12/08 10:40:29;;;;;;;18.65;14.40;;;;;;;;;;4220620;33;20545;-58
2020/12/08 10:42:55;;;;;;;20.48;14.23;;;;;;;;;;4221037;33;20108;-59
2020/12/08 10:45:21;;;;;;;23.12;14.43;;;;;;;;;;4233827;33;20121;-57
2020/12/08 10:47:47;;;;;;;19.35;14.77;;;;;;;;;;4234031;33;20103;-58
2020/12/08 10:50:13;;;;;;;20.10;15.63;;;;;;;;;;4234105;33;20125;-57
2020/12/08 10:52:39;;;;;;;21.58;14.80;;;;;;;;;;4234077;33;20192;-58
2020/12/08 10:55:05;;;;;;;22.58;15.52;;;;;;;;;;4220713;33;20144;-58
2020/12/08 10:57:31;;;;;;;17.95;15.05;;;;;;;;;;4247566;33;20119;-59
2020/12/08 10:59:57;;;;;;;22.25;12.95;;;;;;;;;;4247831;33;20459;-58
2020/12/08 11:02:23;;;;;;;24.65;13.65;;;;;;;;;;4235082;33;20220;-59
2020/12/08 11:04:49;;;;;;;23.42;14.45;;;;;;;;;;4247727;33;20160;-51
2020/12/08 11:07:15;;;;;;;25.08;14.40;;;;;;;;;;4247801;33;20532;-57
2020/12/08 11:09:43;;;;;;;20.00;13.77;;;;;;;;;;4234619;33;20132;-56
2020/12/08 11:12:10;;;;;;;20.48;13.43;;;;;;;;;;4223302;33;20227;-58
2020/12/08 11:14:36;;;;;;;18.92;14.07;;;;;;;;;;4247837;33;20108;-56
2020/12/08 11:17:02;;;;;;;17.77;13.70;;;;;;;;;;4247703;33;20142;-54
2020/12/08 11:19:28;;;;;;;21.62;14.15;;;;;;;;;;4222889;33;20195;-57
2020/12/08 11:21:54;;;;;;;18.70;13.98;;;;;;;;;;4247557;33;20125;-57
2020/12/08 11:24:20;;;;;;;17.40;13.90;;;;;;;;;;4222151;33;20120;-58
2020/12/08 11:26:46;;;;;;;19.83;13.88;;;;;;;;;;4233485;33;20548;-54
2020/12/08 11:29:12;;;;;;;22.37;15.80;;;;;;;;;;4233831;33;20223;-55
2020/12/08 11:31:38;;;;;;;22.10;15.20;;;;;;;;;;4233729;33;20116;-56
2020/12/08 11:34:04;;;;;;;24.02;16.48;;;;;;;;;;4233561;33;20373;-54
2020/12/08 11:36:30;;;;;;;21.62;16.70;;;;;;;;;;4233444;33;20204;-54
2020/12/08 11:38:56;;;;;;;27.35;18.67;;;;;;;;;;4233615;33;20477;-54
2020/12/08 11:41:22;;;;;;;25.55;16.15;;;;;;;;;;4220498;33;20102;-55
2020/12/08 11:43:48;;;;;;;25.17;18.67;;;;;;;;;;4233787;33;20116;-57
2020/12/08 11:46:14;;;;;;;27.37;19.75;;;;;;;;;;4220636;33;20127;-55
2020/12/08 11:48:40;;;;;;;25.80;20.20;;;;;;;;;;4233602;33;20120;-54
2020/12/08 11:51:06;;;;;;;21.75;15.55;;;;;;;;;;4219695;33;20189;-57
2020/12/08 11:53:32;;;;;;;28.33;16.10;;;;;;;;;;4220592;33;20120;-58
2020/12/08 11:55:58;;;;;;;18.27;12.23;;;;;;;;;;4233306;33;20112;-57
2020/12/08 11:58:24;;;;;;;21.80;13.43;;;;;;;;;;4220251;33;20128;-53
2020/12/08 12:00:50;;;;;;;22.75;13.10;;;;;;;;;;4233539;33;20121;-61
2020/12/08 12:03:16;;;;;;;18.60;12.07;;;;;;;;;;4233370;33;20113;-60
2020/12/08 12:05:42;;;;;;;16.58;11.88;;;;;;;;;;4233119;33;20200;-57
2020/12/08 12:08:08;;;;;;;16.58;11.65;;;;;;;;;;4220295;33;20506;-59
2020/12/08 12:10:34;;;;;;;15.38;11.07;;;;;;;;;;4233071;33;20101;-58
2020/12/08 12:13:01;;;;;;;13.50;10.50;;;;;;;;;;4233468;33;20464;-59
2020/12/08 12:15:27;;;;;;;15.48;11.50;;;;;;;;;;4220185;33;20108;-57
2020/12/08 12:17:53;;;;;;;13.77;10.98;;;;;;;;;;4233215;33;20113;-58
2020/12/08 12:20:19;;;;;;;15.00;11.18;;;;;;;;;;4233254;33;20105;-58
2020/12/08 12:22:45;;;;;;;15.82;11.30;;;;;;;;;;4232983;33;20101;-58
2020/12/08 12:25:11;;;;;;;17.42;11.57;;;;;;;;;;4232880;33;20135;-55
2020/12/08 12:27:37;;;;;;;17.67;10.90;;;;;;;;;;4232077;33;20109;-60
2020/12/08 12:30:03;;;;;;;18.12;12.02;;;;;;;;;;4232903;33;20147;-55
2020/12/08 12:32:29;;;;;;;12.00;10.30;;;;;;;;;;4220060;33;20143;-59
2020/12/08 12:34:55;;;;;;;13.55;10.68;;;;;;;;;;4233242;33;20117;-59
2020/12/08 12:37:23;;;;;;;16.37;9.80;;;;;;;;;;4208588;33;20117;-59
2020/12/08 12:39:50;;;;;;;14.48;10.70;;;;;;;;;;4219906;33;20553;-57
2020/12/08 12:42:18;;;;;;;14.20;10.73;;;;;;;;;;4232887;33;20119;-61
2020/12/08 12:44:45;;;;;;;16.27;11.07;;;;;;;;;;4219994;33;20279;-60
2020/12/08 12:47:11;;;;;;;15.73;11.65;;;;;;;;;;4232679;33;20212;-59
2020/12/08 12:49:37;;;;;;;14.98;11.10;;;;;;;;;;4232952;33;20116;-61
2020/12/08 12:52:03;;;;;;;15.23;11.57;;;;;;;;;;4232886;33;20142;-60
2020/12/08 12:54:29;;;;;;;14.75;11.23;;;;;;;;;;4233077;33;20109;-62
2020/12/08 12:56:55;;;;;;;17.70;12.25;;;;;;;;;;4219694;33;20129;-61
2020/12/08 12:59:21;;;;;;;16.08;12.23;;;;;;;;;;4232675;33;20105;-59
2020/12/08 13:01:47;;;;;;;17.00;12.32;;;;;;;;;;4232412;33;20148;-60
2020/12/08 13:04:13;;;;;;;15.77;12.30;;;;;;;;;;4232580;33;20528;-61
2020/12/08 13:06:42;;;;;;;20.85;13.10;;;;;;;;;;4232678;33;20164;-58
2020/12/08 13:09:07;;;;;;;19.08;12.40;;;;;;;;;;4208389;33;20128;-61
2020/12/08 13:11:33;;;;;;;17.87;11.25;;;;;;;;;;4219552;33;20547;-61
2020/12/08 13:13:59;;;;;;;17.83;12.45;;;;;;;;;;4232772;33;20563;-61
2020/12/08 13:16:25;;;;;;;18.27;13.35;;;;;;;;;;4219637;33;20137;-62
2020/12/08 13:18:52;;;;;;;16.95;13.13;;;;;;;;;;4232618;33;20201;-61
2020/12/08 13:21:18;;;;;;;17.05;12.48;;;;;;;;;;4232665;33;20112;-59
2020/12/08 13:23:44;;;;;;;17.25;12.15;;;;;;;;;;4219500;33;20113;-60
2020/12/08 13:26:10;;;;;;;13.43;11.60;;;;;;;;;;4219624;33;20504;-60
2020/12/08 13:28:36;;;;;;;16.95;12.07;;;;;;;;;;4231120;33;20137;-60
2020/12/08 13:31:03;;;;;;;14.30;12.77;;;;;;;;;;4219750;33;20183;-54
2020/12/08 13:33:29;;;;;;;15.77;12.40;;;;;;;;;;4232461;33;20120;-55
2020/12/08 13:35:56;;;;;;;16.02;13.00;;;;;;;;;;4219439;33;20226;-58
2020/12/08 13:38:38;;;;;;;17.95;13.05;;;;;;;;;;4208080;33;20216;-59
2020/12/08 13:41:13;;;;;;;16.90;13.00;;;;;;;;;;4221371;33;20104;-59
2020/12/08 13:43:39;;;;;;;16.10;13.27;;;;;;;;;;4232742;33;20121;-56
2020/12/08 13:46:05;;;;;;;14.73;12.60;;;;;;;;;;4232584;33;20224;-58
2020/12/08 13:48:31;;;;;;;20.95;12.98;;;;;;;;;;4232342;33;20112;-50
2020/12/08 13:50:57;;;;;;;17.23;12.10;;;;;;;;;;4219321;33;20540;-58
2020/12/08 13:53:23;;;;;;;17.00;12.85;;;;;;;;;;4232553;33;20100;-59
2020/12/08 13:55:50;;;;;;;16.37;12.32;;;;;;;;;;4219446;33;20125;-59
2020/12/08 13:58:16;;;;;;;19.30;12.32;;;;;;;;;;4219461;33;20125;-60
2020/12/08 14:00:43;;;;;;;20.12;13.75;;;;;;;;;;4230901;33;20462;-61
2020/12/08 14:03:09;;;;;;;22.87;15.15;;;;;;;;;;4232501;33;20200;-59
2020/12/08 14:05:44;;;;;;;34.75;14.20;;;;;;;;;;4229917;33;20125;-60
2020/12/08 14:08:10;;;;;;;17.55;14.25;;;;;;;;;;4232172;33;20537;-59
2020/12/08 14:10:38;;;;;;;21.62;14.05;;;;;;;;;;4232025;33;20183;-58
2020/12/08 14:13:04;;;;;;;18.62;13.60;;;;;;;;;;4219131;33;20090;-59
2020/12/08 14:15:30;;;;;;;16.15;13.38;;;;;;;;;;4232037;33;20137;-59
2020/12/08 14:17:56;;;;;;;15.32;13.15;;;;;;;;;;4221300;33;20113;-57
2020/12/08 14:20:22;;;;;;;18.27;13.00;;;;;;;;;;4234259;33;20125;-59
2020/12/08 14:22:49;;;;;;;20.70;15.07;;;;;;;;;;4234121;33;20558;-58
2020/12/08 14:25:17;;;;;;;18.90;14.55;;;;;;;;;;4234018;33;20128;-58
2020/12/08 14:27:56;;;;;;;21.25;15.05;;;;;;;;;;4234285;33;20082;-55
2020/12/08 14:30:22;;;;;;;17.23;14.50;;;;;;;;;;4234188;33;20452;-56
2020/12/08 14:32:48;;;;;;;18.58;14.38;;;;;;;;;;4221174;33;20204;-58
2020/12/08 14:35:14;;;;;;;18.80;13.55;;;;;;;;;;4234036;33;20132;-58
2020/12/08 14:37:40;;;;;;;14.95;12.63;;;;;;;;;;4234349;33;20118;-60
2020/12/08 14:40:09;;;;;;;17.12;12.43;;;;;;;;;;4233927;33;20116;-58
2020/12/08 14:42:36;;;;;;;13.55;11.45;;;;;;;;;;4209668;33;20124;-57
2020/12/08 14:45:02;;;;;;;15.48;12.37;;;;;;;;;;4233856;33;20216;-57
2020/12/08 14:47:29;;;;;;;15.73;12.50;;;;;;;;;;4233875;33;20125;-57
2020/12/08 14:49:56;;;;;;;18.37;13.98;;;;;;;;;;4233909;33;20412;-58
2020/12/08 14:52:29;;;;;;;17.62;13.57;;;;;;;;;;4233940;33;20203;-54
2020/12/08 14:54:55;;;;;;;18.85;13.05;;;;;;;;;;4233786;33;20092;-54
2020/12/08 14:57:21;;;;;;;15.93;12.60;;;;;;;;;;4217137;33;20910;-54
2020/12/08 14:59:47;;;;;;;17.02;13.60;;;;;;;;;;4224236;33;20129;-54
2020/12/08 15:02:24;;;;;;;15.90;13.62;;;;;;;;;;4208065;33;20105;-55
2020/12/08 15:04:51;;;;;;;17.92;13.60;;;;;;;;;;4233748;33;20124;-55
2020/12/08 15:07:17;;;;;;;19.80;13.88;;;;;;;;;;4220405;33;20121;-54
2020/12/08 15:09:43;;;;;;;17.42;13.10;;;;;;;;;;4208766;33;20220;-55
2020/12/08 15:12:09;;;;;;;17.10;13.40;;;;;;;;;;4233416;33;20563;-53
2020/12/08 15:14:35;;;;;;;18.48;13.07;;;;;;;;;;4209413;33;20108;-55
2020/12/08 15:17:01;;;;;;;20.25;14.77;;;;;;;;;;4233090;33;20214;-56
2020/12/08 15:19:27;;;;;;;20.27;14.07;;;;;;;;;;4220624;33;20620;-59
2020/12/08 15:21:53;;;;;;;18.83;13.20;;;;;;;;;;4230637;33;20131;-58
2020/12/08 15:24:19;;;;;;;17.67;13.77;;;;;;;;;;4233313;33;20089;-56
2020/12/08 15:26:45;;;;;;;15.25;13.65;;;;;;;;;;4232711;33;20125;-57
2020/12/08 15:29:11;;;;;;;16.48;12.65;;;;;;;;;;4233798;33;20105;-56
2020/12/08 15:31:37;;;;;;;16.08;12.05;;;;;;;;;;4233788;33;20437;-58
2020/12/08 15:34:07;;;;;;;16.50;13.00;;;;;;;;;;4220589;33;20524;-58
2020/12/08 15:36:33;;;;;;;16.20;12.43;;;;;;;;;;4220749;33;20105;-57
2020/12/08 15:38:59;;;;;;;17.05;12.20;;;;;;;;;;4233497;33;20216;-60
2020/12/08 15:41:25;;;;;;;17.37;13.43;;;;;;;;;;4233712;33;20128;-59
2020/12/08 15:43:51;;;;;;;19.25;13.07;;;;;;;;;;4220490;33;20129;-58
2020/12/08 15:46:21;;;;;;;18.83;13.27;;;;;;;;;;4220302;33;20505;-57
2020/12/08 15:48:47;;;;;;;19.73;13.32;;;;;;;;;;4233697;33;20102;-58
2020/12/08 15:51:13;;;;;;;19.20;14.65;;;;;;;;;;4233346;33;20130;-57
2020/12/08 15:53:39;;;;;;;19.05;13.85;;;;;;;;;;4220390;33;20136;-58
2020/12/08 15:56:05;;;;;;;15.05;12.68;;;;;;;;;;4233426;33;20132;-58
2020/12/08 15:58:31;;;;;;;17.58;13.55;;;;;;;;;;4233265;33;20093;-56
2020/12/08 16:00:57;;;;;;;15.38;12.75;;;;;;;;;;4233599;33;20119;-57
2020/12/08 16:03:23;;;;;;;15.75;12.77;;;;;;;;;;4220604;33;20476;-55